sensor_id;sensor_type;location;lat;lon;timestamp;temperature;humidity
1504;DHT22;743;47.076;15.494;2023-02-11T00:01:36;0.30;1.00
1504;DHT22;743;47.076;15.494;2023-02-11T00:04:07;0.70;1.00
1504;DHT22;743;47.076;15.494;2023-02-11T00:06:36;0.40;1.00
1504;DHT22;743;47.076;15.494;2023-02-11T00:09:05;0.40;1.00
1504;DHT22;743;47.076;15.494;2023-02-11T00:11:33;0.30;1.00
1504;DHT22;743;47.076;15.494;2023-02-11T00:14:02;0.00;1.00
1504;DHT22;743;47.076;15.494;2023-02-11T00:16:34;0.20;1.00
1504;DHT22;743;47.076;15.494;2023-02-11T00:19:01;0.30;1.00
1504;DHT22;743;47.076;15.494;2023-02-11T00:21:31;0.50;1.00
1504;DHT22;743;47.076;15.494;2023-02-11T00:23:59;0.30;1.00
1504;DHT22;743;47.076;15.494;2023-02-11T00:26:31;0.50;1.00
1504;DHT22;743;47.076;15.494;2023-02-11T00:29:00;0.90;1.00
1504;DHT22;743;47.076;15.494;2023-02-11T00:31:30;0.10;1.00
1504;DHT22;743;47.076;15.494;2023-02-11T00:36:29;0.10;1.00
1504;DHT22;743;47.076;15.494;2023-02-11T00:38:59;0.40;1.00
1504;DHT22;743;47.076;15.494;2023-02-11T00:41:26;0.10;1.00
1504;DHT22;743;47.076;15.494;2023-02-11T00:43:54;0.40;1.00
1504;DHT22;743;47.076;15.494;2023-02-11T00:46:23;0.10;1.00
1504;DHT22;743;47.076;15.494;2023-02-11T00:48:52;0.00;1.00
1504;DHT22;743;47.076;15.494;2023-02-11T00:51:24;0.20;1.00
1504;DHT22;743;47.076;15.494;2023-02-11T00:53:53;0.00;1.00
1504;DHT22;743;47.076;15.494;2023-02-11T00:56:21;0.30;1.00
1504;DHT22;743;47.076;15.494;2023-02-11T00:58:49;-0.10;1.00
1504;DHT22;743;47.076;15.494;2023-02-11T01:01:18;0.20;1.00
1504;DHT22;743;47.076;15.494;2023-02-11T01:03:48;0.50;1.00
1504;DHT22;743;47.076;15.494;2023-02-11T01:06:17;0.30;1.00
1504;DHT22;743;47.076;15.494;2023-02-11T01:08:52;0.40;1.00
1504;DHT22;743;47.076;15.494;2023-02-11T01:11:21;0.40;1.00
1504;DHT22;743;47.076;15.494;2023-02-11T01:13:51;0.60;1.00
1504;DHT22;743;47.076;15.494;2023-02-11T01:16:20;0.30;1.00
1504;DHT22;743;47.076;15.494;2023-02-11T01:18:48;0.50;1.00
1504;DHT22;743;47.076;15.494;2023-02-11T01:21:16;0.40;1.00
1504;DHT22;743;47.076;15.494;2023-02-11T01:23:45;0.20;1.00
1504;DHT22;743;47.076;15.494;2023-02-11T01:26:15;0.20;1.00
1504;DHT22;743;47.076;15.494;2023-02-11T01:28:43;0.40;1.00
1504;DHT22;743;47.076;15.494;2023-02-11T01:31:11;0.70;1.00
1504;DHT22;743;47.076;15.494;2023-02-11T01:36:09;0.20;1.00
1504;DHT22;743;47.076;15.494;2023-02-11T01:38:37;-0.40;1.00
1504;DHT22;743;47.076;15.494;2023-02-11T01:41:07;0.10;1.00
1504;DHT22;743;47.076;15.494;2023-02-11T01:43:40;-0.10;1.00
1504;DHT22;743;47.076;15.494;2023-02-11T01:46:23;0.10;1.00
1504;DHT22;743;47.076;15.494;2023-02-11T01:48:57;-0.40;1.00
1504;DHT22;743;47.076;15.494;2023-02-11T01:51:31;-0.20;1.00
1504;DHT22;743;47.076;15.494;2023-02-11T01:54:01;-0.20;1.00
1504;DHT22;743;47.076;15.494;2023-02-11T01:57:01;-0.50;1.00
1504;DHT22;743;47.076;15.494;2023-02-11T01:59:55;0.30;1.00
1504;DHT22;743;47.076;15.494;2023-02-11T02:02:29;-0.20;1.00
1504;DHT22;743;47.076;15.494;2023-02-11T02:05:06;-0.20;1.00
1504;DHT22;743;47.076;15.494;2023-02-11T02:07:38;-0.50;1.00
1504;DHT22;743;47.076;15.494;2023-02-11T02:10:19;-0.10;1.00
1504;DHT22;743;47.076;15.494;2023-02-11T02:12:47;-0.10;1.00
1504;DHT22;743;47.076;15.494;2023-02-11T02:15:28;-0.10;1.00
1504;DHT22;743;47.076;15.494;2023-02-11T02:18:08;0.30;1.00
1504;DHT22;743;47.076;15.494;2023-02-11T02:24:21;-0.20;1.00
1504;DHT22;743;47.076;15.494;2023-02-11T02:27:17;-0.60;1.00
1504;DHT22;743;47.076;15.494;2023-02-11T02:33:10;-0.40;1.00
1504;DHT22;743;47.076;15.494;2023-02-11T02:35:47;-0.50;1.00
1504;DHT22;743;47.076;15.494;2023-02-11T02:38:22;-0.30;1.00
1504;DHT22;743;47.076;15.494;2023-02-11T02:40:56;-0.40;1.00
1504;DHT22;743;47.076;15.494;2023-02-11T02:43:25;0.00;1.00
1504;DHT22;743;47.076;15.494;2023-02-11T02:45:54;0.00;1.00
1504;DHT22;743;47.076;15.494;2023-02-11T02:48:39;-0.40;1.00
1504;DHT22;743;47.076;15.494;2023-02-11T02:51:14;-0.40;1.00
1504;DHT22;743;47.076;15.494;2023-02-11T02:53:54;-0.10;1.00
1504;DHT22;743;47.076;15.494;2023-02-11T02:56:29;-0.60;1.00
1504;DHT22;743;47.076;15.494;2023-02-11T02:59:09;-0.50;1.00
1504;DHT22;743;47.076;15.494;2023-02-11T03:01:49;-0.50;1.00
1504;DHT22;743;47.076;15.494;2023-02-11T03:04:27;-0.50;1.00
1504;DHT22;743;47.076;15.494;2023-02-11T03:07:02;-0.50;1.00
1504;DHT22;743;47.076;15.494;2023-02-11T03:09:36;-0.40;1.00
1504;DHT22;743;47.076;15.494;2023-02-11T03:12:09;-0.30;1.00
1504;DHT22;743;47.076;15.494;2023-02-11T03:14:40;-0.50;1.00
1504;DHT22;743;47.076;15.494;2023-02-11T03:17:14;-0.60;1.00
1504;DHT22;743;47.076;15.494;2023-02-11T03:19:47;-0.80;1.00
1504;DHT22;743;47.076;15.494;2023-02-11T03:22:23;-0.30;1.00
1504;DHT22;743;47.076;15.494;2023-02-11T03:24:54;-0.30;1.00
1504;DHT22;743;47.076;15.494;2023-02-11T03:27:27;-0.30;1.00
1504;DHT22;743;47.076;15.494;2023-02-11T03:30:00;-0.10;1.00
1504;DHT22;743;47.076;15.494;2023-02-11T03:32:34;0.50;1.00
1504;DHT22;743;47.076;15.494;2023-02-11T03:35:10;-0.20;1.00
1504;DHT22;743;47.076;15.494;2023-02-11T03:37:43;-0.40;1.00
1504;DHT22;743;47.076;15.494;2023-02-11T03:40:14;-1.60;1.00
1504;DHT22;743;47.076;15.494;2023-02-11T03:42:49;-0.20;1.00
1504;DHT22;743;47.076;15.494;2023-02-11T03:45:21;-0.10;1.00
1504;DHT22;743;47.076;15.494;2023-02-11T03:47:52;-0.50;1.00
1504;DHT22;743;47.076;15.494;2023-02-11T03:50:25;-0.40;1.00
1504;DHT22;743;47.076;15.494;2023-02-11T03:52:54;-0.30;1.00
1504;DHT22;743;47.076;15.494;2023-02-11T03:55:24;-0.40;1.00
1504;DHT22;743;47.076;15.494;2023-02-11T03:57:55;-0.30;1.00
1504;DHT22;743;47.076;15.494;2023-02-11T04:00:29;-0.20;1.00
1504;DHT22;743;47.076;15.494;2023-02-11T04:02:57;-0.20;1.00
1504;DHT22;743;47.076;15.494;2023-02-11T04:05:32;-0.30;1.00
1504;DHT22;743;47.076;15.494;2023-02-11T04:08:02;-0.10;1.00
1504;DHT22;743;47.076;15.494;2023-02-11T04:10:31;0.00;1.00
1504;DHT22;743;47.076;15.494;2023-02-11T04:12:59;-0.40;1.00
1504;DHT22;743;47.076;15.494;2023-02-11T04:15:28;-0.90;1.00
1504;DHT22;743;47.076;15.494;2023-02-11T04:17:56;-0.50;1.00
1504;DHT22;743;47.076;15.494;2023-02-11T04:20:30;-0.80;1.00
1504;DHT22;743;47.076;15.494;2023-02-11T04:22:58;-1.40;1.00
1504;DHT22;743;47.076;15.494;2023-02-11T04:25:29;-0.90;1.00
1504;DHT22;743;47.076;15.494;2023-02-11T04:32:54;-0.60;1.00
1504;DHT22;743;47.076;15.494;2023-02-11T04:37:53;-0.70;1.00
1504;DHT22;743;47.076;15.494;2023-02-11T04:40:21;0.10;1.00
1504;DHT22;743;47.076;15.494;2023-02-11T04:42:49;-0.60;1.00
1504;DHT22;743;47.076;15.494;2023-02-11T04:45:22;-0.90;1.00
1504;DHT22;743;47.076;15.494;2023-02-11T04:47:50;-0.80;1.00
1504;DHT22;743;47.076;15.494;2023-02-11T04:50:18;-0.80;1.00
1504;DHT22;743;47.076;15.494;2023-02-11T04:52:46;-0.90;1.00
1504;DHT22;743;47.076;15.494;2023-02-11T04:55:17;-1.00;1.00
1504;DHT22;743;47.076;15.494;2023-02-11T04:57:45;-0.60;1.00
1504;DHT22;743;47.076;15.494;2023-02-11T05:00:16;-0.80;1.00
1504;DHT22;743;47.076;15.494;2023-02-11T05:02:45;-0.60;1.00
1504;DHT22;743;47.076;15.494;2023-02-11T05:07:40;-1.20;1.00
1504;DHT22;743;47.076;15.494;2023-02-11T05:12:46;-1.00;1.00
1504;DHT22;743;47.076;15.494;2023-02-11T05:15:21;-0.60;1.00
1504;DHT22;743;47.076;15.494;2023-02-11T05:17:50;-0.40;1.00
1504;DHT22;743;47.076;15.494;2023-02-11T05:20:18;-0.60;1.00
1504;DHT22;743;47.076;15.494;2023-02-11T05:22:46;-0.80;1.00
1504;DHT22;743;47.076;15.494;2023-02-11T05:25:14;-0.70;1.00
1504;DHT22;743;47.076;15.494;2023-02-11T05:27:54;-0.60;1.00
1504;DHT22;743;47.076;15.494;2023-02-11T05:30:21;-0.80;1.00
1504;DHT22;743;47.076;15.494;2023-02-11T05:32:51;-0.70;1.00
1504;DHT22;743;47.076;15.494;2023-02-11T05:35:20;-1.50;1.00
1504;DHT22;743;47.076;15.494;2023-02-11T05:37:49;-0.90;1.00
1504;DHT22;743;47.076;15.494;2023-02-11T05:45:18;-0.60;1.00
1504;DHT22;743;47.076;15.494;2023-02-11T05:47:48;-1.10;1.00
1504;DHT22;743;47.076;15.494;2023-02-11T05:50:17;-1.10;1.00
1504;DHT22;743;47.076;15.494;2023-02-11T05:52:46;-1.30;1.00
1504;DHT22;743;47.076;15.494;2023-02-11T05:55:14;-1.00;1.00
1504;DHT22;743;47.076;15.494;2023-02-11T05:57:47;-0.90;1.00
1504;DHT22;743;47.076;15.494;2023-02-11T06:00:18;-1.00;1.00
1504;DHT22;743;47.076;15.494;2023-02-11T06:02:45;-1.10;1.00
1504;DHT22;743;47.076;15.494;2023-02-11T06:07:43;-1.00;1.00
1504;DHT22;743;47.076;15.494;2023-02-11T06:10:13;-0.90;1.00
1504;DHT22;743;47.076;15.494;2023-02-11T06:12:41;-1.10;1.00
1504;DHT22;743;47.076;15.494;2023-02-11T06:15:10;-0.90;1.00
1504;DHT22;743;47.076;15.494;2023-02-11T06:17:41;-0.70;1.00
1504;DHT22;743;47.076;15.494;2023-02-11T06:20:13;-1.00;1.00
1504;DHT22;743;47.076;15.494;2023-02-11T06:22:43;-0.90;1.00
1504;DHT22;743;47.076;15.494;2023-02-11T06:25:15;-1.00;1.00
1504;DHT22;743;47.076;15.494;2023-02-11T06:27:45;-0.80;1.00
1504;DHT22;743;47.076;15.494;2023-02-11T06:30:14;-1.20;1.00
1504;DHT22;743;47.076;15.494;2023-02-11T06:32:43;-0.90;1.00
1504;DHT22;743;47.076;15.494;2023-02-11T06:35:11;-0.50;1.00
1504;DHT22;743;47.076;15.494;2023-02-11T06:37:40;-0.60;1.00
1504;DHT22;743;47.076;15.494;2023-02-11T06:40:07;-1.10;1.00
1504;DHT22;743;47.076;15.494;2023-02-11T06:42:35;-0.30;1.00
1504;DHT22;743;47.076;15.494;2023-02-11T06:45:04;-0.10;1.00
1504;DHT22;743;47.076;15.494;2023-02-11T06:47:33;-0.20;1.00
1504;DHT22;743;47.076;15.494;2023-02-11T06:50:04;-0.10;1.00
1504;DHT22;743;47.076;15.494;2023-02-11T06:52:33;0.10;1.00
1504;DHT22;743;47.076;15.494;2023-02-11T06:55:00;2.70;99.90
1504;DHT22;743;47.076;15.494;2023-02-11T06:57:29;5.40;1.00
1504;DHT22;743;47.076;15.494;2023-02-11T07:02:26;9.10;1.00
1504;DHT22;743;47.076;15.494;2023-02-11T07:04:55;7.90;1.00
1504;DHT22;743;47.076;15.494;2023-02-11T07:07:29;6.80;1.00
1504;DHT22;743;47.076;15.494;2023-02-11T07:09:57;5.30;1.00
1504;DHT22;743;47.076;15.494;2023-02-11T07:12:28;4.10;1.00
1504;DHT22;743;47.076;15.494;2023-02-11T07:14:55;3.30;1.00
1504;DHT22;743;47.076;15.494;2023-02-11T07:17:23;2.60;1.00
1504;DHT22;743;47.076;15.494;2023-02-11T07:19:51;2.20;1.00
1504;DHT22;743;47.076;15.494;2023-02-11T07:22:19;2.00;1.00
1504;DHT22;743;47.076;15.494;2023-02-11T07:24:52;2.10;1.00
1504;DHT22;743;47.076;15.494;2023-02-11T07:27:21;1.70;1.00
1504;DHT22;743;47.076;15.494;2023-02-11T07:29:50;1.70;1.00
1504;DHT22;743;47.076;15.494;2023-02-11T07:32:18;1.60;1.00
1504;DHT22;743;47.076;15.494;2023-02-11T07:34:48;1.60;1.00
1504;DHT22;743;47.076;15.494;2023-02-11T07:37:17;1.60;1.00
1504;DHT22;743;47.076;15.494;2023-02-11T07:39:46;1.80;1.00
1504;DHT22;743;47.076;15.494;2023-02-11T07:44:48;2.20;1.00
1504;DHT22;743;47.076;15.494;2023-02-11T07:47:23;1.50;1.00
1504;DHT22;743;47.076;15.494;2023-02-11T07:52:19;2.60;1.00
1504;DHT22;743;47.076;15.494;2023-02-11T07:57:22;2.40;1.00
1504;DHT22;743;47.076;15.494;2023-02-11T07:59:54;3.00;1.00
1504;DHT22;743;47.076;15.494;2023-02-11T08:02:22;4.90;1.00
1504;DHT22;743;47.076;15.494;2023-02-11T08:04:55;7.10;1.00
1504;DHT22;743;47.076;15.494;2023-02-11T08:07:23;6.90;1.00
1504;DHT22;743;47.076;15.494;2023-02-11T08:09:51;6.60;1.00
1504;DHT22;743;47.076;15.494;2023-02-11T08:12:23;6.00;1.00
1504;DHT22;743;47.076;15.494;2023-02-11T08:17:18;4.30;1.00
1504;DHT22;743;47.076;15.494;2023-02-11T08:19:46;4.10;1.00
1504;DHT22;743;47.076;15.494;2023-02-11T08:22:15;4.00;1.00
1504;DHT22;743;47.076;15.494;2023-02-11T08:27:14;3.50;1.00
1504;DHT22;743;47.076;15.494;2023-02-11T08:29:46;3.60;1.00
1504;DHT22;743;47.076;15.494;2023-02-11T08:32:14;3.70;1.00
1504;DHT22;743;47.076;15.494;2023-02-11T08:34:42;4.00;1.00
1504;DHT22;743;47.076;15.494;2023-02-11T08:39:37;4.70;1.00
1504;DHT22;743;47.076;15.494;2023-02-11T08:44:33;4.70;1.00
1504;DHT22;743;47.076;15.494;2023-02-11T08:47:03;4.70;1.00
1504;DHT22;743;47.076;15.494;2023-02-11T08:49:31;4.10;1.00
1504;DHT22;743;47.076;15.494;2023-02-11T08:54:33;4.90;1.00
1504;DHT22;743;47.076;15.494;2023-02-11T08:57:01;4.90;1.00
1504;DHT22;743;47.076;15.494;2023-02-11T08:59:30;4.90;1.00
1504;DHT22;743;47.076;15.494;2023-02-11T09:01:59;4.80;1.00
1504;DHT22;743;47.076;15.494;2023-02-11T09:04:31;4.90;1.00
1504;DHT22;743;47.076;15.494;2023-02-11T09:06:58;5.50;1.00
1504;DHT22;743;47.076;15.494;2023-02-11T09:09:25;4.80;1.00
1504;DHT22;743;47.076;15.494;2023-02-11T09:11:56;5.10;1.00
1504;DHT22;743;47.076;15.494;2023-02-11T09:14:26;5.10;1.00
1504;DHT22;743;47.076;15.494;2023-02-11T09:16:56;4.50;1.00
1504;DHT22;743;47.076;15.494;2023-02-11T09:19:25;5.30;1.00
1504;DHT22;743;47.076;15.494;2023-02-11T09:21:56;5.30;1.00
1504;DHT22;743;47.076;15.494;2023-02-11T09:24:24;5.10;1.00
1504;DHT22;743;47.076;15.494;2023-02-11T09:26:55;5.60;1.00
1504;DHT22;743;47.076;15.494;2023-02-11T09:29:23;5.60;1.00
1504;DHT22;743;47.076;15.494;2023-02-11T09:31:53;5.80;1.00
1504;DHT22;743;47.076;15.494;2023-02-11T09:36:49;5.70;1.00
1504;DHT22;743;47.076;15.494;2023-02-11T09:39:22;5.80;1.00
1504;DHT22;743;47.076;15.494;2023-02-11T09:42:09;5.90;1.00
1504;DHT22;743;47.076;15.494;2023-02-11T09:44:44;6.30;1.00
1504;DHT22;743;47.076;15.494;2023-02-11T09:47:23;6.10;1.00
1504;DHT22;743;47.076;15.494;2023-02-11T09:49:59;6.10;1.00
1504;DHT22;743;47.076;15.494;2023-02-11T09:52:34;6.10;1.00
1504;DHT22;743;47.076;15.494;2023-02-11T09:55:24;6.00;1.00
1504;DHT22;743;47.076;15.494;2023-02-11T09:57:55;5.80;1.00
1504;DHT22;743;47.076;15.494;2023-02-11T10:00:26;5.90;1.00
1504;DHT22;743;47.076;15.494;2023-02-11T10:03:21;5.70;1.00
1504;DHT22;743;47.076;15.494;2023-02-11T10:06:06;5.60;1.00
1504;DHT22;743;47.076;15.494;2023-02-11T10:08:50;6.10;1.00
1504;DHT22;743;47.076;15.494;2023-02-11T10:11:30;6.30;1.00
1504;DHT22;743;47.076;15.494;2023-02-11T10:14:09;6.40;1.00
1504;DHT22;743;47.076;15.494;2023-02-11T10:16:53;6.80;1.00
1504;DHT22;743;47.076;15.494;2023-02-11T10:19:38;6.70;1.00
1504;DHT22;743;47.076;15.494;2023-02-11T10:22:17;6.70;1.00
1504;DHT22;743;47.076;15.494;2023-02-11T10:24:51;6.60;1.00
1504;DHT22;743;47.076;15.494;2023-02-11T10:27:27;6.50;1.00
1504;DHT22;743;47.076;15.494;2023-02-11T10:29:59;6.60;1.00
1504;DHT22;743;47.076;15.494;2023-02-11T10:32:34;6.70;1.00
1504;DHT22;743;47.076;15.494;2023-02-11T10:35:13;7.10;1.00
1504;DHT22;743;47.076;15.494;2023-02-11T10:37:42;6.50;1.00
1504;DHT22;743;47.076;15.494;2023-02-11T10:40:13;6.60;1.00
1504;DHT22;743;47.076;15.494;2023-02-11T10:42:48;6.90;1.00
1504;DHT22;743;47.076;15.494;2023-02-11T10:45:22;7.00;1.00
1504;DHT22;743;47.076;15.494;2023-02-11T10:50:23;7.00;1.00
1504;DHT22;743;47.076;15.494;2023-02-11T10:53:11;7.00;1.00
1504;DHT22;743;47.076;15.494;2023-02-11T10:55:49;7.40;1.00
1504;DHT22;743;47.076;15.494;2023-02-11T10:58:30;7.50;1.00
1504;DHT22;743;47.076;15.494;2023-02-11T11:00:59;7.90;1.00
1504;DHT22;743;47.076;15.494;2023-02-11T11:03:33;7.80;1.00
1504;DHT22;743;47.076;15.494;2023-02-11T11:06:03;7.60;1.00
1504;DHT22;743;47.076;15.494;2023-02-11T11:08:41;8.00;1.00
1504;DHT22;743;47.076;15.494;2023-02-11T11:11:13;8.10;1.00
1504;DHT22;743;47.076;15.494;2023-02-11T11:13:54;7.90;1.00
1504;DHT22;743;47.076;15.494;2023-02-11T11:16:26;8.10;1.00
1504;DHT22;743;47.076;15.494;2023-02-11T11:19:19;8.30;1.00
1504;DHT22;743;47.076;15.494;2023-02-11T11:21:48;8.60;1.00
1504;DHT22;743;47.076;15.494;2023-02-11T11:24:20;8.60;1.00
1504;DHT22;743;47.076;15.494;2023-02-11T11:26:50;8.40;1.00
1504;DHT22;743;47.076;15.494;2023-02-11T11:29:30;8.60;1.00
1504;DHT22;743;47.076;15.494;2023-02-11T11:32:12;8.30;1.00
1504;DHT22;743;47.076;15.494;2023-02-11T11:34:43;8.30;1.00
1504;DHT22;743;47.076;15.494;2023-02-11T11:37:22;7.80;1.00
1504;DHT22;743;47.076;15.494;2023-02-11T11:39:56;7.80;1.00
1504;DHT22;743;47.076;15.494;2023-02-11T11:42:27;7.80;1.00
1504;DHT22;743;47.076;15.494;2023-02-11T11:44:59;7.70;1.00
1504;DHT22;743;47.076;15.494;2023-02-11T11:47:35;7.50;1.00
1504;DHT22;743;47.076;15.494;2023-02-11T11:50:29;7.40;1.00
1504;DHT22;743;47.076;15.494;2023-02-11T11:53:04;7.70;1.00
1504;DHT22;743;47.076;15.494;2023-02-11T11:55:38;8.30;1.00
1504;DHT22;743;47.076;15.494;2023-02-11T11:58:14;7.80;1.00
1504;DHT22;743;47.076;15.494;2023-02-11T12:00:52;8.30;1.00
1504;DHT22;743;47.076;15.494;2023-02-11T12:06:40;8.30;1.00
1504;DHT22;743;47.076;15.494;2023-02-11T12:09:22;9.00;1.00
1504;DHT22;743;47.076;15.494;2023-02-11T12:12:08;9.40;1.00
1504;DHT22;743;47.076;15.494;2023-02-11T12:14:48;9.50;1.00
1504;DHT22;743;47.076;15.494;2023-02-11T12:17:41;9.60;1.00
1504;DHT22;743;47.076;15.494;2023-02-11T12:20:31;9.80;1.00
1504;DHT22;743;47.076;15.494;2023-02-11T12:23:20;9.90;1.00
1504;DHT22;743;47.076;15.494;2023-02-11T12:26:03;10.20;1.00
1504;DHT22;743;47.076;15.494;2023-02-11T12:28:39;11.00;1.00
1504;DHT22;743;47.076;15.494;2023-02-11T12:31:24;11.40;1.00
1504;DHT22;743;47.076;15.494;2023-02-11T12:34:19;12.30;1.00
1504;DHT22;743;47.076;15.494;2023-02-11T12:36:59;12.50;1.00
1504;DHT22;743;47.076;15.494;2023-02-11T12:39:32;12.50;1.00
1504;DHT22;743;47.076;15.494;2023-02-11T12:42:31;12.10;1.00
1504;DHT22;743;47.076;15.494;2023-02-11T12:45:58;11.40;1.00
1504;DHT22;743;47.076;15.494;2023-02-11T12:48:55;10.70;1.00
1504;DHT22;743;47.076;15.494;2023-02-11T12:51:50;10.40;1.00
1504;DHT22;743;47.076;15.494;2023-02-11T12:54:30;10.40;1.00
1504;DHT22;743;47.076;15.494;2023-02-11T12:57:05;9.90;1.00
1504;DHT22;743;47.076;15.494;2023-02-11T12:59:53;10.90;1.00
1504;DHT22;743;47.076;15.494;2023-02-11T13:02:29;10.80;1.00
1504;DHT22;743;47.076;15.494;2023-02-11T13:05:07;11.00;1.00
1504;DHT22;743;47.076;15.494;2023-02-11T13:07:42;10.60;1.00
1504;DHT22;743;47.076;15.494;2023-02-11T13:10:32;10.70;1.00
1504;DHT22;743;47.076;15.494;2023-02-11T13:13:09;10.90;1.00
1504;DHT22;743;47.076;15.494;2023-02-11T13:33:20;11.10;1.00
1504;DHT22;743;47.076;15.494;2023-02-11T13:36:18;11.00;1.00
1504;DHT22;743;47.076;15.494;2023-02-11T13:38:58;10.90;1.00
1504;DHT22;743;47.076;15.494;2023-02-11T13:41:33;10.50;1.00
1504;DHT22;743;47.076;15.494;2023-02-11T13:46:59;10.50;1.00
1504;DHT22;743;47.076;15.494;2023-02-11T13:49:33;10.60;1.00
1504;DHT22;743;47.076;15.494;2023-02-11T13:52:04;11.00;1.00
1504;DHT22;743;47.076;15.494;2023-02-11T13:54:34;10.40;1.00
1504;DHT22;743;47.076;15.494;2023-02-11T13:57:26;10.40;1.00
1504;DHT22;743;47.076;15.494;2023-02-11T13:59:55;10.60;1.00
1504;DHT22;743;47.076;15.494;2023-02-11T14:02:30;10.80;1.00
1504;DHT22;743;47.076;15.494;2023-02-11T14:05:37;10.70;1.00
1504;DHT22;743;47.076;15.494;2023-02-11T14:08:23;10.60;1.00
1504;DHT22;743;47.076;15.494;2023-02-11T14:14:25;10.20;1.00
1504;DHT22;743;47.076;15.494;2023-02-11T14:17:32;10.60;1.00
1504;DHT22;743;47.076;15.494;2023-02-11T14:20:02;10.20;1.00
1504;DHT22;743;47.076;15.494;2023-02-11T14:22:41;10.40;1.00
1504;DHT22;743;47.076;15.494;2023-02-11T14:25:21;10.50;1.00
1504;DHT22;743;47.076;15.494;2023-02-11T14:27:57;10.60;1.00
1504;DHT22;743;47.076;15.494;2023-02-11T14:30:31;11.30;1.00
1504;DHT22;743;47.076;15.494;2023-02-11T14:33:19;10.80;1.00
1504;DHT22;743;47.076;15.494;2023-02-11T14:36:04;10.70;1.00
1504;DHT22;743;47.076;15.494;2023-02-11T14:38:47;10.80;1.00
1504;DHT22;743;47.076;15.494;2023-02-11T14:41:23;10.80;1.00
1504;DHT22;743;47.076;15.494;2023-02-11T14:43:54;10.50;1.00
1504;DHT22;743;47.076;15.494;2023-02-11T14:46:24;10.70;1.00
1504;DHT22;743;47.076;15.494;2023-02-11T14:48:58;10.60;1.00
1504;DHT22;743;47.076;15.494;2023-02-11T14:51:28;10.70;1.00
1504;DHT22;743;47.076;15.494;2023-02-11T14:54:08;10.70;1.00
1504;DHT22;743;47.076;15.494;2023-02-11T14:56:39;10.40;1.00
1504;DHT22;743;47.076;15.494;2023-02-11T14:59:12;10.50;1.00
1504;DHT22;743;47.076;15.494;2023-02-11T15:01:44;10.50;1.00
1504;DHT22;743;47.076;15.494;2023-02-11T15:04:22;10.80;1.00
1504;DHT22;743;47.076;15.494;2023-02-11T15:06:50;10.30;1.00
1504;DHT22;743;47.076;15.494;2023-02-11T15:09:21;10.50;1.00
1504;DHT22;743;47.076;15.494;2023-02-11T15:11:53;10.00;1.00
1504;DHT22;743;47.076;15.494;2023-02-11T15:14:24;10.50;1.00
1504;DHT22;743;47.076;15.494;2023-02-11T15:16:54;10.80;1.00
1504;DHT22;743;47.076;15.494;2023-02-11T15:19:27;10.60;1.00
1504;DHT22;743;47.076;15.494;2023-02-11T15:22:02;10.50;1.00
1504;DHT22;743;47.076;15.494;2023-02-11T15:24:33;10.20;1.00
1504;DHT22;743;47.076;15.494;2023-02-11T15:27:03;10.50;1.00
1504;DHT22;743;47.076;15.494;2023-02-11T15:29:39;10.00;1.00
1504;DHT22;743;47.076;15.494;2023-02-11T15:32:13;10.20;1.00
1504;DHT22;743;47.076;15.494;2023-02-11T15:34:46;9.90;1.00
1504;DHT22;743;47.076;15.494;2023-02-11T15:37:19;9.80;1.00
1504;DHT22;743;47.076;15.494;2023-02-11T15:39:51;9.70;1.00
1504;DHT22;743;47.076;15.494;2023-02-11T15:44:49;9.60;1.00
1504;DHT22;743;47.076;15.494;2023-02-11T15:47:35;9.50;1.00
1504;DHT22;743;47.076;15.494;2023-02-11T15:50:19;9.30;1.00
1504;DHT22;743;47.076;15.494;2023-02-11T15:52:48;8.70;1.00
1504;DHT22;743;47.076;15.494;2023-02-11T15:55:17;9.30;1.00
1504;DHT22;743;47.076;15.494;2023-02-11T15:57:50;9.40;1.00
1504;DHT22;743;47.076;15.494;2023-02-11T16:00:21;9.20;1.00
1504;DHT22;743;47.076;15.494;2023-02-11T16:02:50;9.60;1.00
1504;DHT22;743;47.076;15.494;2023-02-11T16:05:26;9.10;1.00
1504;DHT22;743;47.076;15.494;2023-02-11T16:07:55;9.10;1.00
1504;DHT22;743;47.076;15.494;2023-02-11T16:10:29;9.00;1.00
1504;DHT22;743;47.076;15.494;2023-02-11T16:13:14;9.10;1.00
1504;DHT22;743;47.076;15.494;2023-02-11T16:15:46;9.30;1.00
1504;DHT22;743;47.076;15.494;2023-02-11T16:18:30;9.00;1.00
1504;DHT22;743;47.076;15.494;2023-02-11T16:21:00;9.30;1.00
1504;DHT22;743;47.076;15.494;2023-02-11T16:23:30;9.80;1.00
1504;DHT22;743;47.076;15.494;2023-02-11T16:26:19;9.50;1.00
1504;DHT22;743;47.076;15.494;2023-02-11T16:28:53;9.40;1.00
1504;DHT22;743;47.076;15.494;2023-02-11T16:31:33;9.00;1.00
1504;DHT22;743;47.076;15.494;2023-02-11T16:34:01;8.70;1.00
1504;DHT22;743;47.076;15.494;2023-02-11T16:36:29;8.80;1.00
1504;DHT22;743;47.076;15.494;2023-02-11T16:38:58;8.40;1.00
1504;DHT22;743;47.076;15.494;2023-02-11T16:41:30;8.60;1.00
1504;DHT22;743;47.076;15.494;2023-02-11T16:43:58;8.40;1.00
1504;DHT22;743;47.076;15.494;2023-02-11T16:46:26;8.30;1.00
1504;DHT22;743;47.076;15.494;2023-02-11T16:48:56;7.80;1.00
1504;DHT22;743;47.076;15.494;2023-02-11T16:51:26;8.10;1.00
1504;DHT22;743;47.076;15.494;2023-02-11T16:53:55;7.70;1.00
1504;DHT22;743;47.076;15.494;2023-02-11T16:56:26;7.50;1.00
1504;DHT22;743;47.076;15.494;2023-02-11T17:01:24;7.50;1.00
1504;DHT22;743;47.076;15.494;2023-02-11T17:03:52;7.40;1.00
1504;DHT22;743;47.076;15.494;2023-02-11T17:06:23;7.40;1.00
1504;DHT22;743;47.076;15.494;2023-02-11T17:08:52;7.30;1.00
1504;DHT22;743;47.076;15.494;2023-02-11T17:11:20;7.40;1.00
1504;DHT22;743;47.076;15.494;2023-02-11T17:13:54;6.40;1.00
1504;DHT22;743;47.076;15.494;2023-02-11T17:16:22;6.70;1.00
1504;DHT22;743;47.076;15.494;2023-02-11T17:19:04;6.80;1.00
1504;DHT22;743;47.076;15.494;2023-02-11T17:21:32;7.00;1.00
1504;DHT22;743;47.076;15.494;2023-02-11T17:24:00;6.70;1.00
1504;DHT22;743;47.076;15.494;2023-02-11T17:26:28;6.70;1.00
1504;DHT22;743;47.076;15.494;2023-02-11T17:28:58;6.90;1.00
1504;DHT22;743;47.076;15.494;2023-02-11T17:31:29;6.90;1.00
1504;DHT22;743;47.076;15.494;2023-02-11T17:33:58;6.80;1.00
1504;DHT22;743;47.076;15.494;2023-02-11T17:36:31;6.70;1.00
1504;DHT22;743;47.076;15.494;2023-02-11T17:38:58;6.70;1.00
1504;DHT22;743;47.076;15.494;2023-02-11T17:41:28;5.40;1.00
1504;DHT22;743;47.076;15.494;2023-02-11T17:43:59;6.30;1.00
1504;DHT22;743;47.076;15.494;2023-02-11T17:46:28;6.40;1.00
1504;DHT22;743;47.076;15.494;2023-02-11T17:48:57;6.60;1.00
1504;DHT22;743;47.076;15.494;2023-02-11T17:51:29;6.50;1.00
1504;DHT22;743;47.076;15.494;2023-02-11T17:53:59;6.40;1.00
1504;DHT22;743;47.076;15.494;2023-02-11T17:56:30;6.20;1.00
1504;DHT22;743;47.076;15.494;2023-02-11T17:59:00;6.40;1.00
1504;DHT22;743;47.076;15.494;2023-02-11T18:01:29;6.40;1.00
1504;DHT22;743;47.076;15.494;2023-02-11T18:03:57;6.60;1.00
1504;DHT22;743;47.076;15.494;2023-02-11T18:06:26;6.10;1.00
1504;DHT22;743;47.076;15.494;2023-02-11T18:08:57;6.30;1.00
1504;DHT22;743;47.076;15.494;2023-02-11T18:11:28;6.00;1.00
1504;DHT22;743;47.076;15.494;2023-02-11T18:14:02;5.80;1.00
1504;DHT22;743;47.076;15.494;2023-02-11T18:16:34;5.30;1.00
1504;DHT22;743;47.076;15.494;2023-02-11T18:19:05;5.20;1.00
1504;DHT22;743;47.076;15.494;2023-02-11T18:21:36;5.40;1.00
1504;DHT22;743;47.076;15.494;2023-02-11T18:24:05;5.40;1.00
1504;DHT22;743;47.076;15.494;2023-02-11T18:26:36;5.50;1.00
1504;DHT22;743;47.076;15.494;2023-02-11T18:29:09;5.00;1.00
1504;DHT22;743;47.076;15.494;2023-02-11T18:31:38;5.40;1.00
1504;DHT22;743;47.076;15.494;2023-02-11T18:34:07;5.30;1.00
1504;DHT22;743;47.076;15.494;2023-02-11T18:36:37;5.70;1.00
1504;DHT22;743;47.076;15.494;2023-02-11T18:39:05;5.70;1.00